This is the latest recevied weather packets stored in our database for station/object EB1BWO-11. If no packets are shown the sender has not sent any weather packets the latest 10 day(s).
| Time | Temp. | Humidity | Pressure | Rain* | Wind** | Luminosity | Snow |
|---|---|---|---|---|---|---|---|
| 1777743666 | 15.56° C | 76% | 1017.2 hPa | - | - | - | - |
| 1777742766 | 15.56° C | 75% | 1016.5 hPa | - | - | - | - |
| 1777741865 | 15.56° C | 76% | 1016.9 hPa | - | - | - | - |
| 1777740965 | 15.56° C | 76% | 1016.9 hPa | - | - | - | - |
| 1777740065 | 15.56° C | 76% | 1016.5 hPa | - | - | - | - |
| 1777739165 | 15.56° C | 77% | 1016.5 hPa | - | - | - | - |
| 1777738265 | 15.56° C | 77% | 1016.6 hPa | - | - | - | - |
| 1777737365 | 15.56° C | 79% | 1016.5 hPa | - | - | - | - |
| 1777736465 | 16.67° C | 76% | 1017.1 hPa | - | - | - | - |
| 1777735565 | 16.11° C | 75% | 1017.8 hPa | - | - | - | - |
| 1777734664 | 16.67° C | 74% | 1018 hPa | - | - | - | - |
| 1777733764 | 17.78° C | 72% | 1017.7 hPa | - | - | - | - |
| 1777732864 | 18.33° C | 71% | 1017.5 hPa | - | - | - | - |
| 1777731964 | 20° C | 68% | 1017.3 hPa | - | - | - | - |
| 1777731064 | 18.89° C | 70% | 1017.5 hPa | - | - | - | - |
| 1777730164 | 18.33° C | 72% | 1017.6 hPa | - | - | - | - |
| 1777729264 | 19.44° C | 72% | 1017.4 hPa | - | - | - | - |
| 1777728364 | 19.44° C | 72% | 1017.3 hPa | - | - | - | - |
| 1777727463 | 20.56° C | 69% | 1017.2 hPa | - | - | - | - |
| 1777726563 | 21.67° C | 67% | 1016.9 hPa | - | - | - | - |
| 1777725663 | 22.78° C | 64% | 1016.9 hPa | - | - | - | - |
| 1777724763 | 21.67° C | 65% | 1016.9 hPa | - | - | - | - |
| 1777723863 | 22.78° C | 63% | 1017.4 hPa | - | - | - | - |
| 1777722963 | 23.33° C | 61% | 1017.4 hPa | - | - | - | - |
| 1777722063 | 23.89° C | 60% | 1017.5 hPa | - | - | - | - |
* Rain since midnight (hover to see other rain measurements)
** Current wind speed in m/s (hover to see current wind gust speed)